Time;durP1;ratioP1;P1;durP2;ratioP2;P2;SDS_P1;SDS_P2;PMS_P1;PMS_P2;Temp;Humidity;BMP_temperature;BMP_pressure;BME280_temperature;BME280_humidity;BME280_pressure;Samples;Min_cycle;Max_cycle;Signal;HPM_P1;HPM_P2
2023/02/10 00:01:19;;;;;;;18.02;11.50;;;6.00;99.90;;;;;;5114260;28;20028;-42
2023/02/10 00:03:45;;;;;;;21.08;11.68;;;6.00;99.90;;;;;;5114374;28;20015;-42
2023/02/10 00:06:12;;;;;;;21.38;12.10;;;6.10;99.90;;;;;;5113686;28;20023;-38
2023/02/10 00:08:38;;;;;;;19.60;11.93;;;6.30;99.90;;;;;;5113812;28;20027;-41
2023/02/10 00:11:06;;;;;;;20.25;11.88;;;6.50;99.90;;;;;;5113935;28;20094;-41
2023/02/10 00:13:33;;;;;;;18.17;11.90;;;6.70;99.90;;;;;;5113775;28;20416;-40
2023/02/10 00:16:03;;;;;;;21.60;11.85;;;6.70;99.90;;;;;;5113587;28;20034;-42
2023/02/10 00:18:29;;;;;;;17.85;11.52;;;6.70;99.90;;;;;;5114079;28;20111;-42
2023/02/10 00:20:55;;;;;;;20.35;12.10;;;6.60;99.90;;;;;;5113651;28;20107;-42
2023/02/10 00:23:21;;;;;;;19.88;10.77;;;6.60;99.90;;;;;;5113773;28;20016;-42
2023/02/10 00:25:47;;;;;;;18.85;11.23;;;6.50;99.90;;;;;;5112046;28;20016;-42
2023/02/10 00:28:12;;;;;;;20.23;12.30;;;6.40;99.90;;;;;;5113460;28;20905;-41
2023/02/10 00:30:38;;;;;;;21.08;12.82;;;6.30;99.90;;;;;;5113578;28;20028;-40
2023/02/10 00:33:04;;;;;;;17.73;11.43;;;6.30;99.90;;;;;;5113361;28;20148;-40
2023/02/10 00:35:30;;;;;;;18.08;12.05;;;6.20;99.90;;;;;;5112960;28;20024;-39
2023/02/10 00:37:56;;;;;;;18.65;10.95;;;6.20;99.90;;;;;;5113179;28;20031;-42
2023/02/10 00:40:21;;;;;;;19.08;11.85;;;6.10;99.90;;;;;;5113166;28;20508;-42
2023/02/10 00:42:47;;;;;;;19.70;11.95;;;6.10;99.90;;;;;;5113175;28;20028;-41
2023/02/10 00:45:13;;;;;;;19.13;11.77;;;6.10;99.90;;;;;;5113207;28;20031;-41
2023/02/10 00:47:39;;;;;;;19.92;12.40;;;6.00;99.90;;;;;;5112889;28;20477;-42
2023/02/10 00:50:05;;;;;;;19.25;11.65;;;6.00;99.90;;;;;;5112885;28;20054;-41
2023/02/10 00:52:30;;;;;;;17.60;11.30;;;6.00;99.90;;;;;;5113021;28;20434;-42
2023/02/10 00:54:58;;;;;;;18.98;11.65;;;6.00;99.90;;;;;;5112970;27;20519;-42
2023/02/10 00:57:24;;;;;;;18.02;11.07;;;5.90;99.90;;;;;;5112593;28;20031;-42
2023/02/10 00:59:49;;;;;;;17.08;10.77;;;5.90;99.90;;;;;;5112702;28;20046;-41
2023/02/10 01:02:15;;;;;;;16.13;10.65;;;5.80;99.90;;;;;;5112941;28;20024;-41
2023/02/10 01:04:41;;;;;;;17.38;10.80;;;5.90;99.90;;;;;;5112701;28;20095;-42
2023/02/10 01:07:06;;;;;;;17.10;10.65;;;6.10;99.90;;;;;;5112444;28;20032;-42
2023/02/10 01:09:32;;;;;;;18.85;10.50;;;6.30;99.90;;;;;;5112617;28;20028;-42
2023/02/10 01:11:58;;;;;;;17.75;11.10;;;6.50;99.90;;;;;;5112783;28;20035;-42
2023/02/10 01:14:25;;;;;;;17.90;11.18;;;6.60;99.90;;;;;;5112560;28;20114;-39
2023/02/10 01:16:51;;;;;;;21.50;11.73;;;6.60;99.90;;;;;;5112243;28;20412;-42
2023/02/10 01:19:16;;;;;;;17.02;10.70;;;6.50;99.90;;;;;;5112483;28;20027;-41
2023/02/10 01:21:42;;;;;;;17.95;11.05;;;6.50;99.90;;;;;;5111008;28;20034;-40
2023/02/10 01:24:09;;;;;;;16.50;10.35;;;6.40;99.90;;;;;;5110972;28;20031;-42
2023/02/10 01:26:34;;;;;;;18.52;11.57;;;6.30;99.90;;;;;;5112071;28;20055;-41
2023/02/10 01:29:00;;;;;;;17.85;11.20;;;6.30;99.90;;;;;;5112239;28;20052;-41
2023/02/10 01:31:26;;;;;;;18.23;11.45;;;6.20;99.90;;;;;;5112254;28;20320;-42
2023/02/10 01:33:53;;;;;;;19.70;11.30;;;6.10;99.90;;;;;;5112259;28;20438;-41
2023/02/10 01:36:22;;;;;;;19.23;11.48;;;6.10;99.90;;;;;;5111839;28;20481;-42
2023/02/10 01:38:48;;;;;;;19.27;11.10;;;6.00;99.90;;;;;;5112186;28;20080;-42
2023/02/10 01:41:17;;;;;;;17.13;10.38;;;6.00;99.90;;;;;;5111885;28;20027;-42
2023/02/10 01:43:57;;;;;;;20.30;12.07;;;6.00;99.90;;;;;;5111945;28;20042;-41
2023/02/10 01:46:23;;;;;;;18.88;11.57;;;5.90;99.90;;;;;;5111316;28;20024;-42
2023/02/10 01:48:49;;;;;;;20.13;11.93;;;5.90;99.90;;;;;;5112271;28;20060;-33
2023/02/10 01:51:19;;;;;;;17.33;11.30;;;5.90;99.90;;;;;;5112195;28;20028;-35
2023/02/10 01:53:44;;;;;;;18.27;11.57;;;5.80;99.90;;;;;;5112287;28;20481;-38
2023/02/10 01:56:14;;;;;;;19.60;10.95;;;5.80;99.90;;;;;;5111990;28;20028;-32
2023/02/10 01:58:41;;;;;;;16.17;10.75;;;5.80;99.90;;;;;;5111182;28;20027;-42
2023/02/10 02:01:07;;;;;;;20.33;10.38;;;5.80;99.90;;;;;;5110664;28;20099;-39
2023/02/10 02:03:34;;;;;;;19.50;11.77;;;5.80;99.90;;;;;;5112059;28;20080;-38
2023/02/10 02:05:59;;;;;;;17.20;10.98;;;5.90;99.90;;;;;;5110305;28;20027;-36
2023/02/10 02:08:31;;;;;;;17.73;10.60;;;6.10;99.90;;;;;;5112179;28;20024;-41
2023/02/10 02:11:05;;;;;;;18.95;11.43;;;6.30;99.90;;;;;;5112163;28;20023;-41
2023/02/10 02:14:21;;;;;;;17.40;10.02;;;6.50;99.90;;;;;;5112167;28;20450;-41
2023/02/10 02:17:19;;;;;;;;;;;6.50;99.90;;;;;;5108875;28;20114;-41
2023/02/10 02:23:13;;;;;;;18.88;10.68;;;6.40;99.90;;;;;;5111748;28;20066;-41
2023/02/10 02:25:56;;;;;;;15.73;9.80;;;6.30;99.90;;;;;;5111582;28;20027;-38
2023/02/10 02:28:40;;;;;;;17.98;10.90;;;6.20;99.90;;;;;;5111934;28;20392;-40
2023/02/10 02:31:33;;;;;;;17.58;10.63;;;6.10;99.90;;;;;;5111578;28;20023;-41
2023/02/10 02:34:05;;;;;;;16.88;10.65;;;6.00;99.90;;;;;;5111411;28;20428;-41
2023/02/10 02:36:35;;;;;;;16.05;10.55;;;5.90;99.90;;;;;;5111777;28;20027;-40
2023/02/10 02:39:04;;;;;;;19.67;11.77;;;5.90;99.90;;;;;;5111513;28;20481;-41
2023/02/10 02:41:31;;;;;;;19.20;10.85;;;5.90;99.90;;;;;;5111623;28;20030;-40
2023/02/10 02:43:58;;;;;;;18.42;10.50;;;5.80;99.90;;;;;;5111877;28;20077;-40
2023/02/10 02:46:33;;;;;;;16.90;10.82;;;5.80;99.90;;;;;;5111442;28;20342;-40
2023/02/10 02:49:26;;;;;;;17.92;11.25;;;5.80;99.90;;;;;;5111560;28;20030;-39
2023/02/10 02:52:12;;;;;;;17.65;10.90;;;5.70;99.90;;;;;;5111459;28;20081;-39
2023/02/10 02:55:18;;;;;;;17.98;10.38;;;5.70;99.90;;;;;;5111304;28;20493;-41
2023/02/10 02:57:54;;;;;;;17.95;10.65;;;5.70;99.90;;;;;;5111344;28;20030;-40
2023/02/10 03:00:26;;;;;;;18.45;10.75;;;5.70;99.90;;;;;;5114710;28;20062;-39
2023/02/10 03:02:52;;;;;;;17.20;10.63;;;5.60;99.90;;;;;;5115058;28;20024;-41
2023/02/10 03:05:27;;;;;;;16.17;10.65;;;5.70;99.90;;;;;;5115009;28;20016;-42
2023/02/10 03:07:53;;;;;;;16.30;10.70;;;5.90;99.90;;;;;;5114037;28;20023;-40
2023/02/10 03:10:21;;;;;;;17.95;10.77;;;6.10;99.90;;;;;;5115287;28;20032;-39
2023/02/10 03:12:47;;;;;;;20.45;10.20;;;6.30;99.90;;;;;;5113888;28;20020;-41
2023/02/10 03:15:12;;;;;;;17.98;10.52;;;6.50;99.90;;;;;;5114866;28;20035;-41
2023/02/10 03:17:39;;;;;;;18.38;10.82;;;6.50;99.90;;;;;;5114669;28;20027;-41
2023/02/10 03:20:06;;;;;;;19.13;11.10;;;6.50;99.90;;;;;;5115070;28;20367;-40
2023/02/10 03:22:32;;;;;;;16.25;10.48;;;6.40;99.90;;;;;;5113637;28;20015;-42
2023/02/10 03:24:58;;;;;;;19.25;11.27;;;6.30;99.90;;;;;;5115069;28;20431;-42
2023/02/10 03:27:23;;;;;;;16.73;10.52;;;6.20;99.90;;;;;;5114866;28;20023;-42
2023/02/10 03:29:51;;;;;;;18.65;11.63;;;6.10;99.90;;;;;;5113455;28;20077;-40
2023/02/10 03:32:18;;;;;;;15.70;10.65;;;6.10;99.90;;;;;;5115255;28;20085;-40
2023/02/10 03:34:43;;;;;;;17.05;11.13;;;6.00;99.90;;;;;;5114575;28;20036;-40
2023/02/10 03:37:09;;;;;;;18.98;11.32;;;5.90;99.90;;;;;;5114252;28;20022;-38
2023/02/10 03:39:35;;;;;;;17.23;10.80;;;5.90;99.90;;;;;;5114418;28;20016;-36
2023/02/10 03:42:00;;;;;;;19.83;11.88;;;5.80;99.90;;;;;;5114343;28;20024;-38
2023/02/10 03:44:26;;;;;;;16.77;10.98;;;5.80;99.90;;;;;;5114226;28;20473;-41
2023/02/10 03:46:52;;;;;;;20.08;11.02;;;5.70;99.90;;;;;;5114093;28;20392;-39
2023/02/10 03:49:17;;;;;;;19.70;11.35;;;5.70;99.90;;;;;;5114434;28;20462;-37
2023/02/10 03:51:43;;;;;;;17.92;11.10;;;5.70;99.90;;;;;;5114215;28;20027;-37
2023/02/10 03:54:09;;;;;;;17.95;10.43;;;5.70;99.90;;;;;;5114367;28;20034;-43
2023/02/10 03:56:35;;;;;;;19.83;11.32;;;5.60;99.90;;;;;;5113851;28;20394;-40
2023/02/10 03:59:02;;;;;;;18.45;10.60;;;5.60;99.90;;;;;;5113867;28;20036;-36
2023/02/10 04:01:28;;;;;;;17.67;10.98;;;5.60;99.90;;;;;;5112595;28;20081;-41
2023/02/10 04:03:54;;;;;;;18.30;11.32;;;5.60;99.90;;;;;;5114234;28;20408;-37
2023/02/10 04:06:19;;;;;;;19.67;10.65;;;5.70;99.90;;;;;;5113685;28;20505;-39
2023/02/10 04:08:47;;;;;;;17.00;10.48;;;5.90;99.90;;;;;;5114275;28;20024;-40
2023/02/10 04:11:13;;;;;;;16.88;10.63;;;6.10;99.90;;;;;;5113550;28;20023;-37
2023/02/10 04:13:39;;;;;;;17.00;10.57;;;6.30;99.90;;;;;;5114178;28;20028;-39
2023/02/10 04:16:10;;;;;;;17.48;10.77;;;6.40;99.90;;;;;;5113596;28;20053;-38
2023/02/10 04:18:36;;;;;;;16.77;10.48;;;6.40;99.90;;;;;;5113790;28;20027;-37
2023/02/10 04:21:03;;;;;;;17.08;10.43;;;6.30;99.90;;;;;;5113970;28;20020;-37
2023/02/10 04:23:29;;;;;;;16.58;10.18;;;6.20;99.90;;;;;;5113704;28;20500;-39
2023/02/10 04:25:55;;;;;;;18.92;10.48;;;6.20;99.90;;;;;;5113683;28;20047;-38
2023/02/10 04:28:21;;;;;;;17.85;10.95;;;6.10;99.90;;;;;;5112335;28;20070;-36
2023/02/10 04:30:54;;;;;;;16.05;10.25;;;6.00;99.90;;;;;;5113683;28;20028;-39
2023/02/10 04:33:20;;;;;;;18.02;10.77;;;5.90;99.90;;;;;;5113604;28;20071;-37
2023/02/10 04:35:49;;;;;;;18.30;10.93;;;5.80;99.90;;;;;;5113410;28;20476;-39
2023/02/10 04:38:16;;;;;;;19.25;10.80;;;5.80;99.90;;;;;;5113340;28;20020;-36
2023/02/10 04:40:42;;;;;;;16.40;10.70;;;5.70;99.90;;;;;;5113074;28;20031;-36
2023/02/10 04:43:09;;;;;;;17.92;10.50;;;5.70;99.90;;;;;;5113182;28;20019;-38
2023/02/10 04:45:34;;;;;;;15.85;10.52;;;5.70;99.90;;;;;;5113053;28;20020;-39
2023/02/10 04:48:00;;;;;;;17.20;10.15;;;5.60;99.90;;;;;;5112875;28;20022;-34
2023/02/10 04:50:26;;;;;;;16.98;10.55;;;5.60;99.90;;;;;;5112950;28;20495;-37
2023/02/10 04:52:51;;;;;;;17.15;10.98;;;5.60;99.90;;;;;;5112958;28;20019;-34
2023/02/10 04:55:17;;;;;;;17.58;10.75;;;5.60;99.90;;;;;;5112941;28;20110;-34
2023/02/10 04:57:43;;;;;;;16.70;10.63;;;5.50;99.90;;;;;;5112712;28;20035;-36
2023/02/10 05:00:09;;;;;;;18.45;11.35;;;5.50;99.90;;;;;;5111497;28;20042;-35
2023/02/10 05:02:35;;;;;;;17.90;10.77;;;5.50;99.90;;;;;;5112719;27;20027;-37
2023/02/10 05:05:01;;;;;;;15.38;9.88;;;5.60;99.90;;;;;;5112941;28;20024;-35
2023/02/10 05:07:26;;;;;;;17.67;10.20;;;5.70;99.90;;;;;;5112465;28;20020;-39
2023/02/10 05:09:52;;;;;;;17.70;10.43;;;5.90;99.90;;;;;;5112621;28;20027;-35
2023/02/10 05:12:17;;;;;;;18.10;10.60;;;6.10;99.90;;;;;;5112746;28;20131;-33
2023/02/10 05:14:43;;;;;;;17.92;10.55;;;6.30;99.90;;;;;;5112572;28;20027;-36
2023/02/10 05:17:09;;;;;;;16.38;10.40;;;6.30;99.90;;;;;;5110955;28;20474;-41
2023/02/10 05:19:38;;;;;;;17.35;10.80;;;6.30;99.90;;;;;;5112520;28;20554;-37
2023/02/10 05:22:03;;;;;;;18.73;10.65;;;6.20;99.90;;;;;;5111668;28;20027;-36
2023/02/10 05:24:29;;;;;;;18.00;10.60;;;6.10;99.90;;;;;;5111489;28;20038;-39
2023/02/10 05:26:55;;;;;;;15.77;10.40;;;6.00;99.90;;;;;;5112392;28;20024;-36
2023/02/10 05:29:20;;;;;;;16.83;11.10;;;5.90;99.90;;;;;;5112612;28;20445;-36
2023/02/10 05:31:46;;;;;;;18.17;10.60;;;5.90;99.90;;;;;;5112409;28;20481;-37
2023/02/10 05:34:12;;;;;;;17.55;10.27;;;5.80;99.90;;;;;;5112311;28;20110;-37
2023/02/10 05:36:38;;;;;;;17.77;10.90;;;5.70;99.90;;;;;;5112191;28;20035;-39
2023/02/10 05:41:48;;;;;;;18.13;10.85;;;5.60;99.90;;;;;;5112074;28;20072;-35
2023/02/10 05:44:14;;;;;;;14.38;10.38;;;5.60;99.90;;;;;;5112046;28;20019;-32
2023/02/10 05:46:39;;;;;;;17.75;10.90;;;5.60;99.90;;;;;;5111965;28;20127;-33
2023/02/10 05:49:05;;;;;;;16.80;10.13;;;5.50;99.90;;;;;;5112169;28;20156;-36
2023/02/10 05:51:31;;;;;;;16.70;10.38;;;5.50;99.90;;;;;;5112144;28;20039;-33
2023/02/10 05:53:56;;;;;;;15.82;9.98;;;5.50;99.90;;;;;;5112129;28;20031;-37
2023/02/10 05:56:22;;;;;;;18.55;10.82;;;5.50;99.90;;;;;;5111698;28;20500;-35
2023/02/10 05:58:47;;;;;;;15.77;10.35;;;5.40;99.90;;;;;;5112043;28;20035;-34
2023/02/10 06:01:13;;;;;;;17.88;10.57;;;5.40;99.90;;;;;;5110461;28;20088;-35
2023/02/10 06:03:39;;;;;;;17.05;10.63;;;5.40;99.90;;;;;;5112409;28;20024;-38
2023/02/10 06:06:05;;;;;;;16.05;10.77;;;5.50;99.90;;;;;;5111852;28;20122;-37
2023/02/10 06:08:30;;;;;;;15.38;10.38;;;5.70;99.90;;;;;;5111738;28;20043;-36
2023/02/10 06:10:56;;;;;;;17.75;10.50;;;5.90;99.90;;;;;;5111540;28;20089;-34
2023/02/10 06:13:22;;;;;;;17.65;10.65;;;6.10;99.90;;;;;;5111739;28;20031;-38
2023/02/10 06:15:48;;;;;;;18.73;10.77;;;6.20;99.90;;;;;;5112141;28;20107;-43
2023/02/10 06:18:14;;;;;;;15.80;10.23;;;6.20;99.90;;;;;;5111765;28;20059;-38
2023/02/10 06:20:39;;;;;;;16.88;10.73;;;6.10;99.90;;;;;;5111810;28;20081;-36
2023/02/10 06:23:05;;;;;;;21.10;11.52;;;6.10;99.90;;;;;;5111581;28;20024;-34
2023/02/10 06:25:31;;;;;;;16.65;10.68;;;6.00;99.90;;;;;;5111479;28;20058;-35
2023/02/10 06:27:56;;;;;;;15.55;10.38;;;5.90;99.90;;;;;;5110227;28;20393;-35
2023/02/10 06:30:22;;;;;;;17.40;10.43;;;5.80;99.90;;;;;;5111894;28;20034;-38
2023/02/10 06:32:47;;;;;;;18.52;10.95;;;5.80;99.90;;;;;;5112854;28;20032;-38
2023/02/10 06:35:13;;;;;;;16.52;10.88;;;5.70;99.90;;;;;;5115747;28;20031;-33
2023/02/10 06:37:39;;;;;;;19.35;10.95;;;5.60;99.90;;;;;;5115427;28;20027;-35
2023/02/10 06:40:06;;;;;;;16.98;10.77;;;5.60;99.90;;;;;;5115775;27;20110;-36
2023/02/10 06:42:32;;;;;;;19.05;10.90;;;5.50;99.90;;;;;;5115574;28;20385;-38
2023/02/10 06:44:57;;;;;;;16.15;10.32;;;5.50;99.90;;;;;;5115756;28;20020;-34
2023/02/10 06:47:23;;;;;;;16.85;11.13;;;5.50;99.90;;;;;;5114462;28;20038;-37
2023/02/10 06:49:49;;;;;;;16.85;10.65;;;5.50;99.90;;;;;;5115443;28;20019;-37
2023/02/10 06:52:15;;;;;;;18.10;10.52;;;5.40;99.90;;;;;;5115386;28;20034;-37
2023/02/10 06:54:41;;;;;;;16.40;10.63;;;5.40;99.90;;;;;;5115810;28;20027;-37
2023/02/10 06:57:07;;;;;;;19.40;11.07;;;5.40;99.90;;;;;;5115532;28;20020;-36
2023/02/10 06:59:33;;;;;;;17.40;11.25;;;5.40;99.90;;;;;;5115590;28;20122;-34
2023/02/10 07:02:01;;;;;;;16.75;10.27;;;5.30;99.90;;;;;;5115953;28;20401;-36
2023/02/10 07:04:29;;;;;;;17.13;10.77;;;5.40;99.90;;;;;;5114392;28;20110;-36
2023/02/10 07:06:55;;;;;;;15.68;9.95;;;5.50;99.90;;;;;;5115166;28;20024;-36
2023/02/10 07:09:21;;;;;;;16.67;10.40;;;5.70;99.90;;;;;;5113603;28;20023;-35
2023/02/10 07:11:47;;;;;;;17.42;10.30;;;5.90;99.90;;;;;;5115123;28;20108;-36
2023/02/10 07:14:13;;;;;;;15.98;10.43;;;6.20;99.90;;;;;;5115794;28;20035;-39
2023/02/10 07:16:39;;;;;;;16.40;10.18;;;6.20;99.90;;;;;;5115489;28;20019;-35
2023/02/10 07:19:04;;;;;;;19.27;11.57;;;6.10;99.90;;;;;;5114863;28;20024;-34
2023/02/10 07:21:30;;;;;;;18.35;11.02;;;6.10;99.90;;;;;;5114571;27;20038;-35
2023/02/10 07:23:56;;;;;;;15.73;10.30;;;6.00;99.90;;;;;;5115129;28;20469;-36
2023/02/10 07:26:21;;;;;;;15.73;10.13;;;5.90;99.90;;;;;;5114708;28;20027;-36
2023/02/10 07:28:47;;;;;;;16.15;10.73;;;5.90;99.90;;;;;;5115373;28;20341;-42
2023/02/10 07:31:14;;;;;;;16.90;10.77;;;5.80;99.90;;;;;;5115558;27;20062;-38
2023/02/10 07:33:40;;;;;;;19.15;10.88;;;5.70;99.90;;;;;;5115304;28;20035;-40
2023/02/10 07:36:07;;;;;;;17.52;10.68;;;5.70;99.90;;;;;;5114719;28;20027;-39
2023/02/10 07:38:33;;;;;;;16.50;10.35;;;5.60;99.90;;;;;;5115721;28;20062;-40
2023/02/10 07:40:59;;;;;;;19.30;11.20;;;5.60;99.90;;;;;;5114703;28;20023;-40
2023/02/10 07:43:25;;;;;;;14.93;9.82;;;5.60;99.90;;;;;;5114453;28;20076;-36
2023/02/10 07:45:50;;;;;;;15.88;10.20;;;5.50;99.90;;;;;;5112800;28;20023;-38
2023/02/10 07:48:17;;;;;;;16.40;9.88;;;5.50;99.90;;;;;;5114657;28;20026;-32
2023/02/10 07:50:43;;;;;;;16.20;9.65;;;5.50;99.90;;;;;;5114069;28;20581;-34
2023/02/10 07:53:10;;;;;;;22.17;11.63;;;5.50;99.90;;;;;;5112856;28;20023;-34
2023/02/10 07:55:39;;;;;;;17.02;11.23;;;5.50;99.90;;;;;;5114089;28;20042;-32
2023/02/10 07:58:06;;;;;;;19.30;11.48;;;5.50;99.90;;;;;;5114392;28;20027;-34
2023/02/10 08:00:32;;;;;;;17.40;10.63;;;5.50;99.90;;;;;;5113808;28;20434;-36
2023/02/10 08:02:57;;;;;;;19.35;11.52;;;5.50;99.90;;;;;;5114274;28;20028;-35
2023/02/10 08:05:23;;;;;;;20.83;11.63;;;5.60;99.90;;;;;;5114438;28;20028;-38
2023/02/10 08:07:49;;;;;;;21.42;10.82;;;5.60;99.90;;;;;;5114951;28;20110;-37
2023/02/10 08:10:15;;;;;;;17.90;10.68;;;5.60;99.90;;;;;;5113782;28;20099;-36
2023/02/10 08:12:40;;;;;;;18.10;11.30;;;5.60;99.90;;;;;;5114456;28;20030;-34
2023/02/10 08:15:07;;;;;;;17.77;11.38;;;5.60;99.90;;;;;;5114341;28;20011;-36
2023/02/10 08:17:33;;;;;;;15.75;10.15;;;5.60;99.90;;;;;;5114529;28;20032;-34
2023/02/10 08:19:59;;;;;;;16.58;11.07;;;5.60;99.90;;;;;;5113971;28;20039;-35
2023/02/10 08:22:25;;;;;;;18.65;10.65;;;5.60;99.90;;;;;;5114522;28;20039;-36
2023/02/10 08:24:50;;;;;;;16.60;10.30;;;5.60;99.90;;;;;;5113143;28;20024;-34
2023/02/10 08:27:16;;;;;;;17.55;10.73;;;5.70;99.90;;;;;;5112568;28;20549;-34
2023/02/10 08:29:42;;;;;;;17.38;10.50;;;5.60;99.90;;;;;;5114243;27;20530;-34
2023/02/10 08:32:08;;;;;;;17.10;10.73;;;5.70;99.90;;;;;;5113400;28;20036;-35
2023/02/10 08:34:34;;;;;;;15.25;10.13;;;5.70;99.90;;;;;;5113526;28;20019;-32
2023/02/10 08:37:00;;;;;;;15.90;10.13;;;5.70;99.90;;;;;;5113147;28;20020;-32
2023/02/10 08:39:28;;;;;;;15.82;9.75;;;5.70;99.90;;;;;;5113114;28;20038;-34
2023/02/10 08:41:54;;;;;;;16.55;9.85;;;5.70;99.90;;;;;;5113295;28;20038;-32
2023/02/10 08:44:19;;;;;;;15.27;10.10;;;5.70;99.90;;;;;;5115153;28;20028;-33
2023/02/10 08:46:45;;;;;;;15.93;10.20;;;5.80;99.90;;;;;;5114095;28;20066;-37
2023/02/10 08:49:11;;;;;;;15.88;9.77;;;5.80;99.90;;;;;;5113331;28;20024;-39
2023/02/10 08:51:38;;;;;;;16.00;9.27;;;5.80;99.90;;;;;;5112930;28;20114;-33
2023/02/10 08:54:04;;;;;;;17.30;10.15;;;5.80;99.90;;;;;;5113083;28;20072;-35
2023/02/10 08:56:30;;;;;;;16.40;9.85;;;5.90;99.90;;;;;;5113302;28;20056;-33
2023/02/10 08:58:56;;;;;;;14.20;9.52;;;6.00;99.90;;;;;;5112785;28;20039;-33
2023/02/10 09:01:25;;;;;;;14.82;9.68;;;6.30;99.90;;;;;;5114485;28;20042;-36
2023/02/10 09:03:52;;;;;;;19.33;11.70;;;6.50;99.90;;;;;;5113692;27;20060;-38
2023/02/10 09:06:30;;;;;;;332.52;149.38;;;6.70;99.90;;;;;;5113105;28;20035;-35
2023/02/10 09:08:56;;;;;;;157.35;74.90;;;6.70;99.90;;;;;;5113356;28;20111;-35
2023/02/10 09:11:23;;;;;;;152.95;66.57;;;6.30;99.90;;;;;;5113027;28;20059;-35
2023/02/10 09:13:53;;;;;;;139.85;66.72;;;5.90;99.90;;;;;;5113564;28;20027;-34
2023/02/10 09:16:19;;;;;;;130.38;61.90;;;5.80;99.90;;;;;;5112477;28;20027;-34
2023/02/10 09:18:45;;;;;;;129.13;60.80;;;5.80;99.90;;;;;;5111754;28;20061;-33
2023/02/10 09:21:11;;;;;;;122.13;56.63;;;5.80;99.90;;;;;;5112153;28;20051;-34
2023/02/10 09:23:37;;;;;;;122.07;58.17;;;5.90;99.90;;;;;;5112121;28;20019;-38
2023/02/10 09:26:03;;;;;;;120.78;56.60;;;5.90;99.90;;;;;;5112710;28;20095;-34
2023/02/10 09:28:29;;;;;;;116.78;55.08;;;6.00;99.90;;;;;;5113252;28;20016;-34
2023/02/10 09:30:55;;;;;;;114.38;54.22;;;6.10;99.90;;;;;;5112201;28;20367;-35
2023/02/10 09:33:21;;;;;;;111.78;53.97;;;6.10;99.90;;;;;;5112281;28;20024;-36
2023/02/10 09:35:46;;;;;;;101.32;51.25;;;6.20;99.90;;;;;;5113248;28;20053;-34
2023/02/10 09:38:13;;;;;;;108.80;51.97;;;6.30;99.90;;;;;;5113105;28;20034;-33
2023/02/10 09:41:30;;;;;;;102.68;49.53;;;6.30;99.90;;;;;;5113156;28;20019;-36
2023/02/10 09:44:21;;;;;;;96.07;47.78;;;6.40;99.90;;;;;;5095135;28;20031;-34
2023/02/10 09:47:08;;;;;;;101.47;47.38;;;6.40;99.90;;;;;;5113688;28;20043;-33
2023/02/10 09:50:12;;;;;;;89.80;45.58;;;6.50;99.90;;;;;;5113047;28;20035;-35
2023/02/10 09:52:49;;;;;;;93.10;47.88;;;6.50;99.90;;;;;;5113363;28;20024;-35
2023/02/10 09:55:45;;;;;;;93.35;45.17;;;6.60;99.90;;;;;;5113399;28;20019;-35
2023/02/10 09:58:11;;;;;;;84.85;43.58;;;;;;;;;;5093966;28;20028;-33
2023/02/10 10:00:42;;;;;;;86.50;43.72;;;;;;;;;;5111598;28;20546;-36
2023/02/10 10:03:13;;;;;;;85.90;44.17;;;;;;;;;;5112179;28;20028;-35
2023/02/10 10:05:39;;;;;;;79.38;42.60;;;;;;;;;;5111916;28;20051;-35
2023/02/10 10:08:14;;;;;;;77.80;40.83;;;6.90;99.90;;;;;;5111530;28;20049;-35
2023/02/10 10:10:44;;;;;;;78.57;41.40;;;6.90;99.90;;;;;;5111678;28;20059;-37
2023/02/10 10:13:25;;;;;;;73.75;38.95;;;6.90;99.90;;;;;;5112231;28;20453;-35
2023/02/10 10:16:18;;;;;;;76.20;39.40;;;6.90;99.90;;;;;;5111568;28;20451;-33
2023/02/10 10:18:52;;;;;;;72.15;38.65;;;7.00;99.90;;;;;;5111932;28;20084;-35
2023/02/10 10:21:34;;;;;;;35.58;20.88;;;7.00;99.90;;;;;;5111375;28;20023;-43
2023/02/10 10:24:20;;;;;;;36.22;21.50;;;7.00;99.90;;;;;;5112608;28;20020;-42
2023/02/10 10:27:04;;;;;;;34.65;20.27;;;6.90;99.90;;;;;;5111950;28;20023;-41
2023/02/10 10:29:46;;;;;;;34.28;19.00;;;6.80;99.90;;;;;;5111824;28;20031;-41
2023/02/10 10:32:45;;;;;;;34.40;18.65;;;6.80;99.90;;;;;;5111936;28;20112;-34
2023/02/10 10:35:26;;;;;;;32.53;19.30;;;6.80;99.90;;;;;;5105516;28;20131;-34
2023/02/10 10:37:51;;;;;;;29.45;17.13;;;6.80;99.90;;;;;;5112178;28;20023;-39
2023/02/10 10:40:24;;;;;;;31.63;18.25;;;6.80;99.90;;;;;;5112728;28;20073;-40
2023/02/10 10:42:59;;;;;;;30.00;17.10;;;6.90;99.90;;;;;;5111447;28;20029;-39
2023/02/10 10:45:33;;;;;;;30.90;16.67;;;6.90;99.90;;;;;;5111499;28;20077;-41
2023/02/10 10:48:26;;;;;;;27.02;16.20;;;6.90;99.90;;;;;;5111213;28;20028;-41
2023/02/10 10:50:57;;;;;;;27.52;16.50;;;7.00;99.90;;;;;;5112910;28;20031;-35
2023/02/10 10:53:38;;;;;;;26.77;15.80;;;7.00;99.90;;;;;;5111400;28;20182;-32
2023/02/10 10:56:11;;;;;;;25.33;15.25;;;7.00;99.90;;;;;;5111035;28;20023;-32
2023/02/10 10:58:44;;;;;;;25.02;14.98;;;7.00;99.90;;;;;;5111395;28;20024;-41
2023/02/10 11:01:11;;;;;;;25.60;15.00;;;7.00;99.90;;;;;;5111225;28;20028;-36
2023/02/10 11:03:37;;;;;;;25.67;14.40;;;7.10;99.90;;;;;;5111337;28;20024;-39
2023/02/10 11:06:11;;;;;;;23.92;14.18;;;7.10;99.90;;;;;;5112109;28;20046;-41
2023/02/10 11:08:57;;;;;;;24.33;14.15;;;7.10;99.90;;;;;;5110468;28;20817;-41
2023/02/10 11:11:39;;;;;;;22.75;13.63;;;7.10;99.90;;;;;;5111070;28;20038;-41
2023/02/10 11:14:25;;;;;;;21.08;12.50;;;7.20;99.90;;;;;;5111173;28;20102;-40
2023/02/10 11:17:02;;;;;;;22.52;13.50;;;7.20;99.90;;;;;;5110775;28;20397;-41
2023/02/10 11:19:33;;;;;;;25.25;12.80;;;7.20;99.90;;;;;;5111572;28;20024;-39
2023/02/10 11:22:00;;;;;;;21.27;12.70;;;7.20;99.90;;;;;;5114704;28;20035;-40
2023/02/10 11:24:28;;;;;;;20.48;12.88;;;7.30;99.90;;;;;;5114688;28;20490;-41
2023/02/10 11:27:00;;;;;;;18.05;11.95;;;7.30;99.90;;;;;;5114563;28;20098;-41
2023/02/10 11:29:28;;;;;;;20.23;11.40;;;7.30;99.90;;;;;;5114576;28;20023;-40
2023/02/10 11:31:54;;;;;;;20.60;11.82;;;7.30;99.90;;;;;;5114875;28;20043;-40
2023/02/10 11:34:45;;;;;;;18.10;11.80;;;7.30;99.90;;;;;;5114587;28;20096;-40
2023/02/10 11:37:32;;;;;;;18.02;11.30;;;7.40;99.90;;;;;;5109163;28;20370;-38
2023/02/10 11:40:01;;;;;;;21.63;11.73;;;7.40;99.90;;;;;;5114817;27;20023;-41
2023/02/10 11:42:34;;;;;;;18.48;11.32;;;7.40;99.90;;;;;;5114371;27;20358;-38
2023/02/10 11:45:18;;;;;;;17.33;10.30;;;7.40;99.90;;;;;;5114654;28;20126;-40
2023/02/10 11:47:45;;;;;;;17.23;10.70;;;7.40;99.90;;;;;;5114307;28;20028;-40
2023/02/10 11:50:26;;;;;;;16.67;10.10;;;7.40;99.90;;;;;;5114670;28;20036;-34
2023/02/10 11:52:52;;;;;;;15.30;9.90;;;7.40;99.90;;;;;;5114286;28;20069;-31
2023/02/10 11:55:20;;;;;;;15.25;10.18;;;7.50;99.90;;;;;;5114285;28;20423;-37
2023/02/10 12:01:06;;;;;;;18.42;10.32;;;7.50;99.90;;;;;;5114473;28;20554;-34
2023/02/10 12:03:50;;;;;;;15.45;9.43;;;7.50;99.90;;;;;;5114218;28;20023;-32
2023/02/10 12:06:51;;;;;;;12.75;8.65;;;7.50;99.90;;;;;;5113815;28;20063;-36
2023/02/10 12:09:39;;;;;;;16.13;9.75;;;7.50;99.90;;;;;;5075883;28;20028;-32
2023/02/10 12:12:24;;;;;;;14.60;9.45;;;7.50;99.90;;;;;;5113948;28;20031;-37
2023/02/10 12:15:30;;;;;;;14.27;9.10;;;7.50;99.90;;;;;;5113848;28;20027;-31
2023/02/10 12:18:19;;;;;;;14.63;8.73;;;7.50;99.90;;;;;;5114395;28;20042;-32
2023/02/10 12:21:21;;;;;;;13.93;9.00;;;7.50;99.90;;;;;;5114308;28;20389;-32
2023/02/10 12:24:04;;;;;;;14.48;8.38;;;7.50;99.90;;;;;;5114647;28;20034;-32
2023/02/10 12:26:49;;;;;;;13.60;8.57;;;7.60;99.90;;;;;;5112263;28;20481;-40
2023/02/10 12:29:23;;;;;;;15.40;8.38;;;7.60;99.90;;;;;;5114119;28;20035;-37
2023/02/10 12:31:55;;;;;;;13.15;8.45;;;7.60;99.90;;;;;;5114295;28;20551;-41
2023/02/10 12:35:00;;;;;;;14.23;8.65;;;7.60;99.90;;;;;;5114230;28;20110;-41
2023/02/10 12:37:47;;;;;;;14.80;8.55;;;7.60;99.90;;;;;;5113441;28;20023;-39
2023/02/10 12:40:44;;;;;;;13.85;8.13;;;7.60;99.90;;;;;;5114029;28;20114;-41
2023/02/10 12:43:40;;;;;;;14.63;8.25;;;7.60;99.90;;;;;;5112960;28;20019;-40
2023/02/10 12:46:27;;;;;;;13.38;7.60;;;7.60;99.90;;;;;;5113242;28;20028;-40
2023/02/10 12:49:13;;;;;;;12.57;7.43;;;7.60;99.90;;;;;;5113453;28;20156;-39
2023/02/10 12:51:57;;;;;;;12.45;8.00;;;7.60;99.90;;;;;;5113382;28;20092;-41
2023/02/10 12:54:35;;;;;;;12.43;7.90;;;7.60;99.90;;;;;;5112593;28;20109;-38
2023/02/10 12:57:08;;;;;;;13.02;7.85;;;7.60;99.90;;;;;;5113621;28;20103;-40
2023/02/10 12:59:55;;;;;;;11.95;7.40;;;7.60;99.90;;;;;;5112838;28;20081;-41
2023/02/10 13:02:36;;;;;;;11.25;7.70;;;7.60;99.90;;;;;;5113038;28;20106;-40
2023/02/10 13:05:07;;;;;;;14.00;7.65;;;7.60;99.90;;;;;;5112921;28;20051;-41